createdAt,value
2023-08-31T00:00:15.121Z,67.78
2023-08-31T00:02:44.654Z,67.80
2023-08-31T00:05:16.931Z,68.23
2023-08-31T00:07:47.616Z,67.94
2023-08-31T00:10:18.415Z,68.26
2023-08-31T00:12:47.990Z,68.12
2023-08-31T00:15:17.583Z,68.42
2023-08-31T00:17:47.173Z,68.82
2023-08-31T00:20:20.104Z,68.17
2023-08-31T00:22:49.693Z,68.07
2023-08-31T00:25:19.429Z,68.29
2023-08-31T00:27:49.743Z,68.58
2023-08-31T00:30:19.304Z,68.41
2023-08-31T00:32:49.005Z,68.47
2023-08-31T00:35:21.248Z,68.72
2023-08-31T00:37:52.389Z,68.60
2023-08-31T00:40:22.119Z,68.16
2023-08-31T00:42:52.941Z,68.75
2023-08-31T00:45:23.424Z,69.47
2023-08-31T00:47:53.358Z,70.00
2023-08-31T00:50:26.026Z,69.70
2023-08-31T00:52:55.599Z,69.67
2023-08-31T00:55:25.523Z,69.42
2023-08-31T00:57:56.720Z,69.08
2023-08-31T01:00:27.546Z,68.98
2023-08-31T01:03:02.395Z,68.44
2023-08-31T01:05:39.160Z,68.92
2023-08-31T01:08:15.388Z,69.17
2023-08-31T01:10:47.945Z,69.18
2023-08-31T01:13:18.681Z,69.28
2023-08-31T01:15:49.816Z,69.16
2023-08-31T01:18:20.189Z,68.79
2023-08-31T01:20:56.844Z,69.25
2023-08-31T01:23:26.512Z,69.37
2023-08-31T01:25:58.636Z,69.81
2023-08-31T01:28:28.513Z,69.81
2023-08-31T01:30:58.540Z,69.43
2023-08-31T01:33:28.121Z,69.59
2023-08-31T01:35:57.666Z,70.07
2023-08-31T01:38:31.361Z,69.95
2023-08-31T01:41:04.695Z,70.28
2023-08-31T01:43:34.797Z,70.61
2023-08-31T01:46:05.225Z,70.19
2023-08-31T01:48:34.917Z,70.11
2023-08-31T01:51:05.016Z,70.03
2023-08-31T01:53:34.604Z,70.70
2023-08-31T01:56:07.404Z,71.01
2023-08-31T01:58:37.033Z,71.16
2023-08-31T02:01:06.613Z,70.83
2023-08-31T02:03:36.429Z,71.26
2023-08-31T02:06:06.209Z,71.16
2023-08-31T02:08:36.165Z,70.71
2023-08-31T02:11:08.310Z,70.76
2023-08-31T02:13:38.196Z,71.02
2023-08-31T02:16:08.152Z,71.15
2023-08-31T02:18:37.751Z,71.21
2023-08-31T02:21:08.752Z,71.78
2023-08-31T02:23:38.091Z,71.22
2023-08-31T02:26:10.233Z,71.00
2023-08-31T02:28:39.761Z,70.83
2023-08-31T02:31:09.383Z,70.39
2023-08-31T02:33:38.985Z,70.22
2023-08-31T02:36:08.842Z,70.12
2023-08-31T02:38:38.557Z,69.20
2023-08-31T02:41:10.708Z,69.14
2023-08-31T02:43:40.452Z,69.59
2023-08-31T02:46:10.112Z,69.46
2023-08-31T02:48:40.280Z,69.35
2023-08-31T02:51:10.174Z,69.72
2023-08-31T02:53:39.814Z,70.94
2023-08-31T02:56:11.943Z,71.21
2023-08-31T02:58:41.777Z,71.06
2023-08-31T03:01:12.892Z,70.71
2023-08-31T03:03:42.614Z,70.94
2023-08-31T03:06:12.574Z,70.92
2023-08-31T03:08:42.250Z,70.62
2023-08-31T03:11:15.568Z,70.54
2023-08-31T03:13:45.201Z,70.60
2023-08-31T03:16:14.748Z,70.74
2023-08-31T03:18:44.356Z,70.99
2023-08-31T03:21:13.886Z,71.19
2023-08-31T03:23:43.456Z,71.22
2023-08-31T03:26:15.721Z,71.57
2023-08-31T03:28:45.313Z,71.49
2023-08-31T03:31:14.960Z,72.08
2023-08-31T03:33:44.692Z,71.56
2023-08-31T03:36:14.393Z,71.25
2023-08-31T03:38:43.956Z,70.66
2023-08-31T03:41:16.288Z,71.39
2023-08-31T03:43:45.852Z,70.79
2023-08-31T03:46:15.411Z,70.55
2023-08-31T03:48:45.020Z,70.57
2023-08-31T03:51:14.684Z,71.07
2023-08-31T03:53:45.340Z,71.22
2023-08-31T03:56:17.517Z,71.09
2023-08-31T03:58:47.109Z,71.20
2023-08-31T04:01:16.722Z,72.26
2023-08-31T04:03:46.444Z,72.56
2023-08-31T04:06:16.006Z,72.47
2023-08-31T04:08:45.591Z,71.01
2023-08-31T04:11:17.718Z,71.02
2023-08-31T04:13:47.294Z,70.74
2023-08-31T04:16:16.883Z,71.05
2023-08-31T04:18:48.890Z,70.67
2023-08-31T04:21:18.445Z,70.76
2023-08-31T04:23:48.118Z,70.71
2023-08-31T04:26:21.637Z,70.80
2023-08-31T04:28:51.214Z,70.52
2023-08-31T04:31:20.799Z,69.69
2023-08-31T04:33:54.795Z,69.49
2023-08-31T04:36:24.478Z,69.25
2023-08-31T04:38:54.249Z,69.58
2023-08-31T04:41:26.446Z,70.12
2023-08-31T04:43:55.987Z,70.42
2023-08-31T04:46:25.568Z,70.32
2023-08-31T04:48:55.162Z,70.36
2023-08-31T04:51:34.272Z,70.83
2023-08-31T04:54:04.138Z,70.29
2023-08-31T04:56:36.831Z,70.24
2023-08-31T04:59:06.738Z,70.73
2023-08-31T05:01:36.288Z,70.29
2023-08-31T05:04:06.616Z,70.13
2023-08-31T05:06:36.234Z,70.09
2023-08-31T05:09:07.289Z,69.60
2023-08-31T05:11:39.254Z,68.55
2023-08-31T05:14:09.039Z,68.37
2023-08-31T05:16:38.693Z,67.87
2023-08-31T05:19:08.856Z,68.04
2023-08-31T05:21:38.431Z,67.93
2023-08-31T05:24:08.945Z,67.50
2023-08-31T05:26:41.113Z,67.33
2023-08-31T05:29:10.800Z,67.27
2023-08-31T05:31:40.502Z,67.30
2023-08-31T05:34:10.169Z,66.81
2023-08-31T05:36:39.787Z,67.54
2023-08-31T05:39:10.156Z,67.12
2023-08-31T05:41:44.212Z,67.94
2023-08-31T05:44:13.958Z,67.89
2023-08-31T05:46:46.297Z,68.03
2023-08-31T05:49:15.930Z,68.33
2023-08-31T05:51:45.522Z,68.13
2023-08-31T05:54:15.638Z,68.66
2023-08-31T05:56:49.197Z,68.34
2023-08-31T05:59:18.817Z,68.59
2023-08-31T06:01:48.415Z,68.91
2023-08-31T06:04:18.076Z,68.57
2023-08-31T06:06:48.974Z,68.39
2023-08-31T06:09:18.788Z,67.91
2023-08-31T06:11:50.988Z,67.59
2023-08-31T06:14:20.776Z,67.62
2023-08-31T06:16:50.962Z,67.24
2023-08-31T06:19:20.575Z,67.04
2023-08-31T06:21:50.167Z,66.57
2023-08-31T06:24:19.773Z,65.80
2023-08-31T06:26:53.220Z,66.39
2023-08-31T06:29:22.847Z,66.57
2023-08-31T06:31:52.469Z,66.51
2023-08-31T06:34:22.192Z,66.54
2023-08-31T06:36:51.762Z,65.83
2023-08-31T06:39:21.525Z,65.85
2023-08-31T06:41:53.802Z,65.27
2023-08-31T06:44:23.418Z,64.18
2023-08-31T06:46:53.065Z,63.95
2023-08-31T06:49:23.354Z,63.72
2023-08-31T06:51:55.247Z,63.91
2023-08-31T06:54:24.872Z,63.04
2023-08-31T06:56:57.074Z,62.53
2023-08-31T06:59:26.737Z,62.14
2023-08-31T07:01:56.422Z,62.44
2023-08-31T07:04:26.033Z,62.34
2023-08-31T07:06:55.655Z,62.46
2023-08-31T07:09:25.340Z,62.45
2023-08-31T07:11:57.560Z,62.23
2023-08-31T07:14:27.395Z,62.15
2023-08-31T07:16:57.126Z,62.42
2023-08-31T07:19:26.843Z,62.21
2023-08-31T07:21:56.476Z,61.59
2023-08-31T07:24:26.599Z,60.82
2023-08-31T07:26:58.788Z,61.05
2023-08-31T07:29:29.435Z,60.88
2023-08-31T07:31:59.017Z,60.62
2023-08-31T07:34:29.002Z,59.41
2023-08-31T07:36:58.666Z,58.07
2023-08-31T07:39:28.771Z,57.08
2023-08-31T07:42:01.176Z,55.70
2023-08-31T07:44:30.790Z,55.29
2023-08-31T07:47:00.618Z,55.94
2023-08-31T07:49:30.424Z,55.50
2023-08-31T07:52:00.037Z,54.71
2023-08-31T07:54:29.850Z,53.10
2023-08-31T07:57:02.036Z,51.02
2023-08-31T07:59:31.686Z,51.36
2023-08-31T08:02:01.521Z,50.72
2023-08-31T08:04:31.188Z,51.45
2023-08-31T08:07:00.807Z,49.24
2023-08-31T08:09:31.059Z,49.02
2023-08-31T08:12:03.601Z,49.22
2023-08-31T08:14:33.614Z,48.71
2023-08-31T08:17:03.233Z,48.55
2023-08-31T08:19:32.823Z,47.90
2023-08-31T08:22:02.482Z,46.98
2023-08-31T08:24:32.115Z,47.22
2023-08-31T08:27:04.305Z,47.67
2023-08-31T08:29:33.953Z,46.01
2023-08-31T08:32:05.177Z,42.09
2023-08-31T08:34:35.052Z,42.68
2023-08-31T08:37:04.952Z,45.60
2023-08-31T08:39:34.556Z,47.51
2023-08-31T08:42:08.495Z,48.25
2023-08-31T08:44:38.066Z,49.07
2023-08-31T08:47:07.713Z,48.91
2023-08-31T08:49:37.650Z,48.64
2023-08-31T08:52:10.198Z,49.01
2023-08-31T08:54:40.688Z,49.55
2023-08-31T08:57:12.976Z,49.18
2023-08-31T08:59:42.584Z,48.86
2023-08-31T09:02:12.451Z,48.96
2023-08-31T09:04:42.071Z,49.19
2023-08-31T09:07:11.688Z,48.20
2023-08-31T09:09:52.982Z,48.75
2023-08-31T09:12:26.293Z,47.81
2023-08-31T09:15:02.634Z,48.70
2023-08-31T09:17:41.601Z,48.33
2023-08-31T09:20:13.212Z,47.38
2023-08-31T09:22:46.061Z,47.60
2023-08-31T09:25:15.832Z,45.80
2023-08-31T09:27:48.708Z,45.76
2023-08-31T09:30:18.533Z,45.47
2023-08-31T09:32:48.148Z,46.15
2023-08-31T09:35:21.974Z,46.06
2023-08-31T09:37:59.873Z,46.40
2023-08-31T09:40:29.760Z,45.92
2023-08-31T09:43:01.956Z,46.15
2023-08-31T09:48:07.536Z,44.73
2023-08-31T09:50:37.762Z,44.48
2023-08-31T09:53:08.168Z,43.97
2023-08-31T09:55:37.876Z,43.31
2023-08-31T09:58:16.079Z,43.10
2023-08-31T10:00:46.579Z,42.34
2023-08-31T10:03:19.227Z,41.60
2023-08-31T10:05:50.735Z,41.48
2023-08-31T10:08:20.681Z,41.44
2023-08-31T10:10:50.348Z,40.59
2023-08-31T10:13:22.531Z,41.06
2023-08-31T10:15:52.270Z,39.79
2023-08-31T10:18:21.834Z,40.16
2023-08-31T10:20:51.451Z,41.04
2023-08-31T10:23:21.037Z,40.55
2023-08-31T10:26:06.203Z,40.79
2023-08-31T10:28:43.564Z,41.60
2023-08-31T10:31:11.286Z,39.47
2023-08-31T10:33:44.490Z,38.88
2023-08-31T10:36:15.598Z,37.94
2023-08-31T10:38:45.791Z,38.81
2023-08-31T10:41:26.014Z,39.18
2023-08-31T10:43:59.308Z,37.91
2023-08-31T10:46:32.829Z,37.95
2023-08-31T10:49:04.281Z,39.15
2023-08-31T10:51:34.516Z,37.88
2023-08-31T10:54:11.656Z,37.71
2023-08-31T10:56:57.737Z,38.28
2023-08-31T10:59:31.288Z,35.97
2023-08-31T11:02:02.176Z,37.14
2023-08-31T11:04:32.075Z,37.29
2023-08-31T11:07:17.406Z,35.91
2023-08-31T11:09:47.386Z,35.78
2023-08-31T11:12:17.198Z,35.51
2023-08-31T11:14:49.393Z,36.53
2023-08-31T11:17:18.960Z,37.30
2023-08-31T11:19:48.573Z,35.97
2023-08-31T11:22:18.228Z,34.85
2023-08-31T11:24:47.894Z,35.14
2023-08-31T11:27:17.515Z,33.77
2023-08-31T11:29:49.766Z,34.52
2023-08-31T11:32:19.354Z,32.68
2023-08-31T11:34:49.002Z,33.38
2023-08-31T11:37:21.237Z,32.01
2023-08-31T11:39:54.762Z,31.42
2023-08-31T11:42:25.120Z,32.76
2023-08-31T11:44:57.404Z,31.67
2023-08-31T11:47:26.989Z,30.19
2023-08-31T11:49:56.596Z,29.37
2023-08-31T11:52:26.171Z,28.59
2023-08-31T11:54:56.223Z,30.54
2023-08-31T11:57:29.752Z,31.53
2023-08-31T12:00:02.390Z,31.44
2023-08-31T12:02:31.972Z,31.62
2023-08-31T12:05:01.606Z,31.04
2023-08-31T12:07:31.210Z,28.30
2023-08-31T12:10:06.529Z,28.55
2023-08-31T12:12:37.829Z,28.65
2023-08-31T12:15:10.665Z,28.90
2023-08-31T12:17:44.740Z,29.28
2023-08-31T12:20:15.458Z,29.50
2023-08-31T12:22:45.056Z,30.74
2023-08-31T12:25:14.672Z,30.58
2023-08-31T12:27:44.450Z,29.63
2023-08-31T12:30:17.357Z,31.00
2023-08-31T12:32:46.985Z,29.88
2023-08-31T12:35:16.868Z,28.41
2023-08-31T12:37:46.596Z,29.68
2023-08-31T12:40:16.447Z,30.63
2023-08-31T12:42:46.874Z,31.85
2023-08-31T12:45:20.447Z,32.29
2023-08-31T12:47:50.813Z,33.76
2023-08-31T12:50:21.067Z,32.54
2023-08-31T12:52:50.735Z,32.15
2023-08-31T12:55:21.010Z,31.78
2023-08-31T12:57:50.652Z,32.85
2023-08-31T13:00:23.562Z,33.26
2023-08-31T13:02:54.193Z,33.87
2023-08-31T13:05:23.960Z,33.80
2023-08-31T13:07:53.556Z,33.63
2023-08-31T13:10:23.339Z,33.62
2023-08-31T13:12:52.933Z,33.97
2023-08-31T13:15:25.174Z,33.86
2023-08-31T13:17:54.808Z,33.02
2023-08-31T13:20:24.450Z,33.43
2023-08-31T13:22:54.056Z,33.53
2023-08-31T13:25:25.241Z,32.13
2023-08-31T13:27:56.184Z,32.11
2023-08-31T13:30:28.807Z,31.93
2023-08-31T13:32:59.504Z,32.52
2023-08-31T13:35:29.249Z,32.22
2023-08-31T13:37:58.879Z,32.18
2023-08-31T13:40:28.733Z,31.62
2023-08-31T13:43:02.337Z,33.15
2023-08-31T13:45:34.805Z,33.52
2023-08-31T13:48:05.591Z,34.09
2023-08-31T13:50:34.974Z,34.18
2023-08-31T13:53:04.720Z,33.88
2023-08-31T13:55:35.987Z,34.62
2023-08-31T13:58:08.027Z,32.42
2023-08-31T14:00:40.214Z,32.94
2023-08-31T14:03:10.067Z,33.13
2023-08-31T14:05:39.749Z,32.41
2023-08-31T14:08:09.837Z,33.90
2023-08-31T14:10:43.485Z,32.63
2023-08-31T14:13:13.044Z,34.31
2023-08-31T14:15:48.290Z,34.58
2023-08-31T14:18:18.159Z,34.80
2023-08-31T14:20:48.006Z,35.03
2023-08-31T14:23:17.644Z,36.36
2023-08-31T14:25:47.232Z,36.04
2023-08-31T14:28:16.843Z,35.54
2023-08-31T14:30:49.002Z,35.52
2023-08-31T14:33:20.281Z,37.02
2023-08-31T14:35:49.828Z,35.84
2023-08-31T14:38:23.795Z,36.16
2023-08-31T14:40:53.375Z,36.19
2023-08-31T14:43:23.033Z,37.20
2023-08-31T14:45:55.210Z,37.02
2023-08-31T14:48:24.819Z,37.29
2023-08-31T14:50:54.361Z,37.56
2023-08-31T14:53:24.335Z,37.97
2023-08-31T14:55:53.936Z,37.98
2023-08-31T14:58:23.539Z,38.06
2023-08-31T15:00:58.805Z,38.54
2023-08-31T15:03:28.591Z,38.79
2023-08-31T15:05:58.265Z,38.69
2023-08-31T15:08:40.002Z,38.78
2023-08-31T15:11:09.661Z,38.76
2023-08-31T15:13:39.194Z,39.00
2023-08-31T15:16:11.392Z,39.14
2023-08-31T15:18:40.953Z,38.71
2023-08-31T15:21:10.578Z,39.59
2023-08-31T15:23:40.340Z,38.86
2023-08-31T15:26:09.905Z,39.31
2023-08-31T15:28:39.477Z,39.29
2023-08-31T15:31:11.670Z,39.12
2023-08-31T15:33:41.284Z,39.55
2023-08-31T15:36:11.456Z,39.99
2023-08-31T15:38:41.268Z,40.36
2023-08-31T15:41:11.034Z,39.56
2023-08-31T15:43:41.083Z,39.24
2023-08-31T15:46:13.465Z,39.08
2023-08-31T15:48:43.066Z,39.67
2023-08-31T15:51:13.013Z,40.47
2023-08-31T15:53:42.743Z,39.81
2023-08-31T15:56:12.313Z,39.53
2023-08-31T15:58:42.319Z,39.52
2023-08-31T16:01:15.548Z,39.36
2023-08-31T16:03:45.140Z,40.10
2023-08-31T16:06:15.452Z,39.75
2023-08-31T16:08:45.135Z,38.16
2023-08-31T16:11:14.846Z,38.51
2023-08-31T16:13:44.413Z,39.61
2023-08-31T16:16:16.637Z,38.32
2023-08-31T16:18:46.543Z,38.73
2023-08-31T16:21:16.183Z,38.24
2023-08-31T16:23:45.756Z,38.76
2023-08-31T16:26:15.298Z,38.85
2023-08-31T16:28:44.846Z,39.30
2023-08-31T16:31:17.329Z,39.06
2023-08-31T16:33:46.963Z,39.28
2023-08-31T16:36:16.546Z,39.79
2023-08-31T16:38:46.085Z,39.58
2023-08-31T16:41:15.634Z,40.02
2023-08-31T16:43:45.433Z,40.33
2023-08-31T16:46:18.623Z,40.35
2023-08-31T16:48:48.198Z,40.19
2023-08-31T16:51:18.328Z,40.02
2023-08-31T16:53:49.481Z,40.37
2023-08-31T16:56:19.732Z,40.98
2023-08-31T16:58:49.314Z,40.53
2023-08-31T17:01:21.452Z,40.39
2023-08-31T17:03:51.221Z,40.75
2023-08-31T17:06:20.899Z,40.07
2023-08-31T17:08:51.760Z,40.84
2023-08-31T17:11:21.079Z,41.35
2023-08-31T17:13:50.641Z,41.99
2023-08-31T17:16:22.881Z,41.21
2023-08-31T17:18:52.649Z,41.91
2023-08-31T17:21:22.201Z,42.08
2023-08-31T17:23:51.754Z,42.08
2023-08-31T17:26:24.880Z,42.24
2023-08-31T17:28:54.533Z,43.01
2023-08-31T17:31:27.310Z,43.07
2023-08-31T17:33:58.796Z,43.52
2023-08-31T17:36:28.559Z,43.96
2023-08-31T17:38:58.093Z,44.67
2023-08-31T17:41:27.983Z,45.13
2023-08-31T17:43:57.548Z,45.09
2023-08-31T17:46:31.629Z,45.23
2023-08-31T17:49:01.217Z,45.76
2023-08-31T17:51:30.871Z,45.90
2023-08-31T17:54:01.009Z,46.69
2023-08-31T17:56:32.158Z,46.97
2023-08-31T17:59:01.765Z,47.55
2023-08-31T18:01:34.810Z,47.96
2023-08-31T18:04:04.735Z,48.57
2023-08-31T18:06:34.876Z,50.02
2023-08-31T18:09:05.879Z,50.68
2023-08-31T18:11:35.197Z,52.22
2023-08-31T18:14:04.839Z,52.16
2023-08-31T18:16:37.033Z,53.39
2023-08-31T18:19:07.278Z,53.38
2023-08-31T18:21:36.838Z,53.75
2023-08-31T18:24:08.892Z,54.36
2023-08-31T18:26:38.455Z,56.19
2023-08-31T18:29:08.109Z,56.71
2023-08-31T18:31:42.427Z,56.44
2023-08-31T18:34:12.231Z,56.96
2023-08-31T18:36:42.205Z,57.08
2023-08-31T18:39:11.788Z,58.17
2023-08-31T18:41:41.732Z,59.87
2023-08-31T18:44:11.306Z,59.23
2023-08-31T18:46:43.558Z,59.51
2023-08-31T18:49:13.256Z,60.47
2023-08-31T18:51:45.023Z,61.03
2023-08-31T18:54:14.683Z,61.90
2023-08-31T18:56:44.292Z,63.49
2023-08-31T18:59:13.934Z,66.33
2023-08-31T19:01:46.847Z,67.37
2023-08-31T19:04:17.772Z,67.03
2023-08-31T19:06:47.322Z,68.04
2023-08-31T19:09:16.856Z,68.78
2023-08-31T19:11:46.439Z,69.09
2023-08-31T19:14:16.010Z,69.28
2023-08-31T19:16:48.211Z,67.99
2023-08-31T19:19:18.119Z,68.81
2023-08-31T19:21:47.677Z,69.36
2023-08-31T19:24:17.234Z,70.68
2023-08-31T19:26:46.787Z,70.80
2023-08-31T19:29:16.377Z,70.30
2023-08-31T19:31:48.622Z,70.34
2023-08-31T19:34:18.354Z,69.16
2023-08-31T19:36:48.066Z,70.01
2023-08-31T19:39:17.671Z,70.69
2023-08-31T19:41:47.234Z,71.33
2023-08-31T19:44:16.795Z,69.25
2023-08-31T19:46:55.489Z,69.78
2023-08-31T19:49:25.753Z,68.16
2023-08-31T19:51:55.319Z,67.69
2023-08-31T19:54:24.943Z,67.81
2023-08-31T19:56:54.555Z,67.82
2023-08-31T19:59:24.106Z,67.29
2023-08-31T20:01:57.150Z,66.07
2023-08-31T20:04:26.795Z,65.94
2023-08-31T20:06:56.424Z,66.18
2023-08-31T20:09:27.879Z,66.15
2023-08-31T20:11:57.586Z,66.98
2023-08-31T20:14:27.202Z,67.63
2023-08-31T20:17:00.031Z,68.55
2023-08-31T20:19:29.638Z,70.72
2023-08-31T20:21:59.405Z,70.10
2023-08-31T20:24:28.953Z,72.70
2023-08-31T20:26:58.752Z,74.14
2023-08-31T20:29:28.372Z,77.07
2023-08-31T20:32:00.761Z,79.26
2023-08-31T20:34:30.403Z,79.44
2023-08-31T20:37:03.758Z,80.36
2023-08-31T20:39:33.788Z,79.99
2023-08-31T20:42:03.542Z,79.96
2023-08-31T20:44:33.583Z,77.77
2023-08-31T20:47:06.049Z,77.59
2023-08-31T20:49:35.683Z,76.88
2023-08-31T20:52:05.263Z,76.54
2023-08-31T20:54:34.911Z,77.41
2023-08-31T20:57:05.249Z,77.29
2023-08-31T20:59:35.370Z,78.23
2023-08-31T21:02:07.696Z,78.17
2023-08-31T21:04:37.465Z,78.13
2023-08-31T21:07:07.453Z,80.31
2023-08-31T21:09:37.066Z,82.62
2023-08-31T21:12:07.048Z,84.54
2023-08-31T21:14:36.751Z,84.83
2023-08-31T21:17:08.975Z,85.27
2023-08-31T21:19:38.572Z,85.51
2023-08-31T21:22:08.138Z,85.34
2023-08-31T21:24:37.989Z,88.12
2023-08-31T21:27:07.978Z,88.72
2023-08-31T21:29:37.644Z,87.78
2023-08-31T21:32:10.032Z,88.31
2023-08-31T21:34:37.047Z,89.42
2023-08-31T21:37:06.939Z,87.88
2023-08-31T21:39:36.593Z,90.67
2023-08-31T21:42:06.496Z,91.20
2023-08-31T21:44:36.107Z,89.83
2023-08-31T21:47:05.666Z,90.49
2023-08-31T21:49:38.074Z,90.78
2023-08-31T21:52:11.231Z,93.42
2023-08-31T21:54:44.160Z,93.69
2023-08-31T21:57:13.913Z,94.27
2023-08-31T21:59:43.753Z,93.42
2023-08-31T22:02:14.965Z,92.49
2023-08-31T22:04:47.396Z,91.80
2023-08-31T22:07:17.201Z,94.95
2023-08-31T22:09:48.471Z,96.20
2023-08-31T22:12:19.373Z,96.25
2023-08-31T22:14:49.393Z,96.97
2023-08-31T22:17:19.101Z,94.67
2023-08-31T22:19:51.558Z,96.77
2023-08-31T22:22:21.614Z,97.60
2023-08-31T22:24:51.376Z,95.17
2023-08-31T22:27:21.130Z,94.71
2023-08-31T22:29:50.841Z,94.60
2023-08-31T22:32:20.636Z,97.64
2023-08-31T22:34:52.803Z,98.39
2023-08-31T22:37:22.365Z,94.94
2023-08-31T22:39:51.937Z,96.06
2023-08-31T22:42:21.493Z,98.65
2023-08-31T22:44:51.057Z,99.83
2023-08-31T22:47:20.627Z,100.00
2023-08-31T22:49:55.463Z,100.00
2023-08-31T22:52:25.056Z,100.00
2023-08-31T22:54:56.346Z,100.00
2023-08-31T22:57:26.132Z,100.00
2023-08-31T22:59:55.845Z,100.00
2023-08-31T23:02:28.757Z,100.00
2023-08-31T23:05:00.991Z,100.00
2023-08-31T23:07:30.742Z,100.00
2023-08-31T23:10:00.725Z,100.00
2023-08-31T23:12:30.416Z,100.00
2023-08-31T23:15:00.003Z,98.77
2023-08-31T23:17:29.607Z,99.53
2023-08-31T23:20:01.816Z,97.99
2023-08-31T23:22:31.414Z,99.99
2023-08-31T23:25:01.041Z,100.00
2023-08-31T23:27:32.274Z,99.30
2023-08-31T23:30:01.996Z,97.36
2023-08-31T23:32:31.598Z,97.71
2023-08-31T23:35:03.808Z,98.54
2023-08-31T23:37:33.390Z,98.97
2023-08-31T23:40:05.729Z,100.00
2023-08-31T23:42:35.645Z,100.00
2023-08-31T23:45:05.283Z,100.00
2023-08-31T23:47:34.941Z,100.00
2023-08-31T23:50:07.937Z,99.79
2023-08-31T23:52:37.567Z,97.99
2023-08-31T23:55:07.624Z,95.90
2023-08-31T23:57:37.322Z,94.29
